sensor_id;sensor_type;location;lat;lon;timestamp;pressure;altitude;pressure_sealevel;temperature;humidity
55424;BME280;41294;42.666;23.350;2023-10-09T00:01:28;95362.31;;;19.75;61.97
55424;BME280;41294;42.666;23.350;2023-10-09T00:03:56;95364.28;;;19.74;61.94
55424;BME280;41294;42.666;23.350;2023-10-09T00:06:26;95372.50;;;19.71;61.73
55424;BME280;41294;42.666;23.350;2023-10-09T00:09:04;95372.50;;;19.71;61.86
55424;BME280;41294;42.666;23.350;2023-10-09T00:11:51;95379.31;;;19.61;62.15
55424;BME280;41294;42.666;23.350;2023-10-09T00:14:24;95374.69;;;19.61;62.47
55424;BME280;41294;42.666;23.350;2023-10-09T00:16:51;95374.19;;;19.63;62.41
55424;BME280;41294;42.666;23.350;2023-10-09T00:19:26;95370.56;;;19.66;62.13
55424;BME280;41294;42.666;23.350;2023-10-09T00:21:56;95363.78;;;19.65;62.06
55424;BME280;41294;42.666;23.350;2023-10-09T00:24:24;95369.34;;;19.56;62.40
55424;BME280;41294;42.666;23.350;2023-10-09T00:26:54;95366.66;;;19.45;62.87
55424;BME280;41294;42.666;23.350;2023-10-09T00:29:37;95367.41;;;19.51;62.14
55424;BME280;41294;42.666;23.350;2023-10-09T00:32:08;95378.81;;;19.46;62.37
55424;BME280;41294;42.666;23.350;2023-10-09T00:34:53;95361.56;;;19.41;62.94
55424;BME280;41294;42.666;23.350;2023-10-09T00:37:23;95367.38;;;19.34;62.78
55424;BME280;41294;42.666;23.350;2023-10-09T00:39:51;95367.59;;;19.20;63.06
55424;BME280;41294;42.666;23.350;2023-10-09T00:42:24;95369.00;;;19.10;63.51
55424;BME280;41294;42.666;23.350;2023-10-09T00:44:59;95365.84;;;19.06;63.49
55424;BME280;41294;42.666;23.350;2023-10-09T00:47:35;95367.81;;;19.11;63.21
55424;BME280;41294;42.666;23.350;2023-10-09T00:50:08;95378.44;;;19.05;63.55
55424;BME280;41294;42.666;23.350;2023-10-09T00:52:41;95383.06;;;19.05;63.69
55424;BME280;41294;42.666;23.350;2023-10-09T00:55:14;95387.94;;;19.12;63.23
55424;BME280;41294;42.666;23.350;2023-10-09T00:57:49;95382.53;;;19.01;63.29
55424;BME280;41294;42.666;23.350;2023-10-09T01:00:24;95385.69;;;18.99;63.38
55424;BME280;41294;42.666;23.350;2023-10-09T01:03:15;95396.06;;;18.81;63.63
55424;BME280;41294;42.666;23.350;2023-10-09T01:05:41;95390.75;;;18.81;63.73
55424;BME280;41294;42.666;23.350;2023-10-09T01:08:17;95399.63;;;18.67;63.84
55424;BME280;41294;42.666;23.350;2023-10-09T01:10:50;95403.03;;;18.68;63.67
55424;BME280;41294;42.666;23.350;2023-10-09T01:13:25;95407.13;;;18.63;63.71
55424;BME280;41294;42.666;23.350;2023-10-09T01:16:05;95403.75;;;18.68;63.51
55424;BME280;41294;42.666;23.350;2023-10-09T01:18:31;95399.56;;;18.51;63.89
55424;BME280;41294;42.666;23.350;2023-10-09T01:21:01;95403.88;;;18.48;63.57
55424;BME280;41294;42.666;23.350;2023-10-09T01:23:28;95418.63;;;18.38;63.71
55424;BME280;41294;42.666;23.350;2023-10-09T01:25:55;95432.88;;;18.30;63.81
55424;BME280;41294;42.666;23.350;2023-10-09T01:28:20;95432.97;;;18.15;64.21
55424;BME280;41294;42.666;23.350;2023-10-09T01:30:46;95434.44;;;18.16;63.58
55424;BME280;41294;42.666;23.350;2023-10-09T01:33:13;95427.91;;;18.17;63.78
55424;BME280;41294;42.666;23.350;2023-10-09T01:35:52;95432.66;;;18.03;63.92
55424;BME280;41294;42.666;23.350;2023-10-09T01:38:23;95432.88;;;18.05;63.70
55424;BME280;41294;42.666;23.350;2023-10-09T01:41:05;95447.94;;;18.08;63.79
55424;BME280;41294;42.666;23.350;2023-10-09T01:43:33;95436.25;;;18.00;64.10
55424;BME280;41294;42.666;23.350;2023-10-09T01:45:59;95445.34;;;17.88;64.20
55424;BME280;41294;42.666;23.350;2023-10-09T01:48:26;95452.25;;;18.00;63.93
55424;BME280;41294;42.666;23.350;2023-10-09T01:50:52;95459.78;;;17.76;64.32
55424;BME280;41294;42.666;23.350;2023-10-09T01:53:18;95463.38;;;17.73;64.63
55424;BME280;41294;42.666;23.350;2023-10-09T01:55:48;95456.31;;;17.70;64.44
55424;BME280;41294;42.666;23.350;2023-10-09T01:58:15;95459.25;;;17.72;64.77
55424;BME280;41294;42.666;23.350;2023-10-09T02:00:43;95470.25;;;17.59;64.89
55424;BME280;41294;42.666;23.350;2023-10-09T02:03:14;95481.78;;;17.51;65.07
55424;BME280;41294;42.666;23.350;2023-10-09T02:05:43;95468.53;;;17.56;64.63
55424;BME280;41294;42.666;23.350;2023-10-09T02:08:08;95480.19;;;17.59;64.69
55424;BME280;41294;42.666;23.350;2023-10-09T02:10:35;95484.59;;;17.42;65.12
55424;BME280;41294;42.666;23.350;2023-10-09T02:13:05;95497.75;;;17.51;64.34
55424;BME280;41294;42.666;23.350;2023-10-09T02:15:39;95504.44;;;17.41;64.45
55424;BME280;41294;42.666;23.350;2023-10-09T02:18:20;95495.91;;;17.37;64.50
55424;BME280;41294;42.666;23.350;2023-10-09T02:23:37;95514.63;;;17.08;65.56
55424;BME280;41294;42.666;23.350;2023-10-09T02:26:19;95514.50;;;16.97;66.14
55424;BME280;41294;42.666;23.350;2023-10-09T02:28:53;95513.56;;;17.00;65.86
55424;BME280;41294;42.666;23.350;2023-10-09T02:31:24;95521.09;;;17.02;65.78
55424;BME280;41294;42.666;23.350;2023-10-09T02:33:51;95523.47;;;17.00;65.68
55424;BME280;41294;42.666;23.350;2023-10-09T02:36:20;95514.03;;;16.99;65.85
55424;BME280;41294;42.666;23.350;2023-10-09T02:38:45;95513.28;;;16.98;65.66
55424;BME280;41294;42.666;23.350;2023-10-09T02:41:15;95504.78;;;16.94;65.92
55424;BME280;41294;42.666;23.350;2023-10-09T02:43:40;95513.72;;;16.77;66.37
55424;BME280;41294;42.666;23.350;2023-10-09T02:46:10;95501.50;;;16.65;66.62
55424;BME280;41294;42.666;23.350;2023-10-09T02:48:55;95511.66;;;16.66;66.75
55424;BME280;41294;42.666;23.350;2023-10-09T02:51:26;95528.16;;;16.70;66.49
55424;BME280;41294;42.666;23.350;2023-10-09T02:53:55;95539.81;;;16.58;66.75
55424;BME280;41294;42.666;23.350;2023-10-09T02:56:23;95530.28;;;16.38;67.29
55424;BME280;41294;42.666;23.350;2023-10-09T02:59:21;95546.53;;;16.40;67.75
55424;BME280;41294;42.666;23.350;2023-10-09T03:01:47;95538.66;;;16.31;67.70
55424;BME280;41294;42.666;23.350;2023-10-09T03:04:13;95549.47;;;16.42;67.31
55424;BME280;41294;42.666;23.350;2023-10-09T03:06:40;95555.16;;;16.35;67.54
55424;BME280;41294;42.666;23.350;2023-10-09T03:09:19;95542.13;;;16.22;67.43
55424;BME280;41294;42.666;23.350;2023-10-09T03:11:52;95542.13;;;16.22;67.76
55424;BME280;41294;42.666;23.350;2023-10-09T03:14:28;95547.31;;;16.17;67.54
55424;BME280;41294;42.666;23.350;2023-10-09T03:16:54;95550.78;;;16.08;67.31
55424;BME280;41294;42.666;23.350;2023-10-09T03:19:21;95550.88;;;15.99;67.56
55424;BME280;41294;42.666;23.350;2023-10-09T03:21:47;95551.34;;;15.98;67.65
55424;BME280;41294;42.666;23.350;2023-10-09T03:24:12;95567.56;;;16.00;67.44
55424;BME280;41294;42.666;23.350;2023-10-09T03:26:38;95570.94;;;16.00;67.23
55424;BME280;41294;42.666;23.350;2023-10-09T03:29:04;95572.03;;;15.94;66.96
55424;BME280;41294;42.666;23.350;2023-10-09T03:31:38;95590.06;;;15.90;67.11
55424;BME280;41294;42.666;23.350;2023-10-09T03:34:04;95589.09;;;15.64;68.32
55424;BME280;41294;42.666;23.350;2023-10-09T03:36:30;95589.03;;;15.73;68.18
55424;BME280;41294;42.666;23.350;2023-10-09T03:38:59;95589.84;;;15.79;67.81
55424;BME280;41294;42.666;23.350;2023-10-09T03:41:25;95575.75;;;15.73;67.71
55424;BME280;41294;42.666;23.350;2023-10-09T03:43:53;95589.03;;;15.73;67.66
55424;BME280;41294;42.666;23.350;2023-10-09T03:46:20;95586.38;;;15.50;67.84
55424;BME280;41294;42.666;23.350;2023-10-09T03:48:50;95587.78;;;15.60;67.70
55424;BME280;41294;42.666;23.350;2023-10-09T03:51:17;95586.78;;;15.57;67.89
55424;BME280;41294;42.666;23.350;2023-10-09T03:53:49;95591.06;;;15.55;67.29
55424;BME280;41294;42.666;23.350;2023-10-09T03:56:15;95595.06;;;15.50;67.18
55424;BME280;41294;42.666;23.350;2023-10-09T03:58:46;95596.03;;;15.38;67.39
55424;BME280;41294;42.666;23.350;2023-10-09T04:01:17;95601.97;;;15.33;67.96
55424;BME280;41294;42.666;23.350;2023-10-09T04:03:49;95602.88;;;15.30;67.31
55424;BME280;41294;42.666;23.350;2023-10-09T04:06:20;95600.84;;;15.16;68.09
55424;BME280;41294;42.666;23.350;2023-10-09T04:08:46;95608.63;;;15.20;67.75
55424;BME280;41294;42.666;23.350;2023-10-09T04:11:16;95602.31;;;15.17;67.96
55424;BME280;41294;42.666;23.350;2023-10-09T04:13:45;95598.03;;;15.20;67.74
55424;BME280;41294;42.666;23.350;2023-10-09T04:16:12;95589.81;;;15.18;67.65
55424;BME280;41294;42.666;23.350;2023-10-09T04:18:56;95590.25;;;15.16;67.64
55424;BME280;41294;42.666;23.350;2023-10-09T04:21:22;95580.22;;;15.20;67.01
55424;BME280;41294;42.666;23.350;2023-10-09T04:24:05;95592.34;;;15.12;66.99
55424;BME280;41294;42.666;23.350;2023-10-09T04:26:38;95592.94;;;15.07;66.85
55424;BME280;41294;42.666;23.350;2023-10-09T04:29:09;95598.56;;;15.00;67.00
55424;BME280;41294;42.666;23.350;2023-10-09T04:31:36;95604.03;;;14.97;66.48
55424;BME280;41294;42.666;23.350;2023-10-09T04:34:05;95609.09;;;14.86;65.98
55424;BME280;41294;42.666;23.350;2023-10-09T04:36:51;95605.72;;;14.85;65.79
55424;BME280;41294;42.666;23.350;2023-10-09T04:39:22;95603.06;;;14.85;65.55
55424;BME280;41294;42.666;23.350;2023-10-09T04:41:57;95603.91;;;14.91;64.65
55424;BME280;41294;42.666;23.350;2023-10-09T04:44:42;95596.00;;;14.82;64.50
55424;BME280;41294;42.666;23.350;2023-10-09T04:47:32;95593.47;;;14.88;63.94
55424;BME280;41294;42.666;23.350;2023-10-09T04:50:05;95586.19;;;14.97;63.69
55424;BME280;41294;42.666;23.350;2023-10-09T04:52:31;95600.97;;;14.89;63.74
55424;BME280;41294;42.666;23.350;2023-10-09T04:55:00;95606.06;;;15.02;63.07
55424;BME280;41294;42.666;23.350;2023-10-09T04:57:37;95599.28;;;15.01;63.13
55424;BME280;41294;42.666;23.350;2023-10-09T05:00:15;95603.25;;;15.05;62.93
55424;BME280;41294;42.666;23.350;2023-10-09T05:02:56;95610.03;;;15.06;62.31
55424;BME280;41294;42.666;23.350;2023-10-09T05:05:23;95613.13;;;15.05;61.78
55424;BME280;41294;42.666;23.350;2023-10-09T05:08:15;95616.94;;;15.13;62.05
55424;BME280;41294;42.666;23.350;2023-10-09T05:10:51;95624.84;;;15.22;60.98
55424;BME280;41294;42.666;23.350;2023-10-09T05:13:29;95625.22;;;15.38;60.61
55424;BME280;41294;42.666;23.350;2023-10-09T05:18:30;95636.78;;;17.26;53.75
55424;BME280;41294;42.666;23.350;2023-10-09T05:21:05;95645.75;;;17.97;51.30
55424;BME280;41294;42.666;23.350;2023-10-09T05:23:51;95645.66;;;18.57;49.15
55424;BME280;41294;42.666;23.350;2023-10-09T05:26:43;95649.44;;;18.70;48.56
55424;BME280;41294;42.666;23.350;2023-10-09T05:29:14;95639.47;;;19.32;47.19
55424;BME280;41294;42.666;23.350;2023-10-09T05:31:58;95651.41;;;19.79;45.97
55424;BME280;41294;42.666;23.350;2023-10-09T05:34:45;95656.69;;;19.68;46.08
55424;BME280;41294;42.666;23.350;2023-10-09T05:37:40;95661.22;;;20.89;42.69
55424;BME280;41294;42.666;23.350;2023-10-09T05:40:12;95668.00;;;21.55;41.23
55424;BME280;41294;42.666;23.350;2023-10-09T05:42:46;95673.59;;;21.68;40.88
55424;BME280;41294;42.666;23.350;2023-10-09T05:45:23;95679.63;;;22.53;39.13
55424;BME280;41294;42.666;23.350;2023-10-09T05:48:07;95672.00;;;22.62;37.84
55424;BME280;41294;42.666;23.350;2023-10-09T05:50:52;95683.63;;;22.30;38.44
55424;BME280;41294;42.666;23.350;2023-10-09T05:53:38;95680.16;;;22.86;37.67
55424;BME280;41294;42.666;23.350;2023-10-09T05:56:10;95689.03;;;23.11;36.61
55424;BME280;41294;42.666;23.350;2023-10-09T05:58:55;95688.94;;;23.99;35.83
55424;BME280;41294;42.666;23.350;2023-10-09T06:01:39;95697.50;;;23.49;35.50
55424;BME280;41294;42.666;23.350;2023-10-09T06:04:23;95700.09;;;23.60;35.41
55424;BME280;41294;42.666;23.350;2023-10-09T06:07:08;95703.94;;;23.65;35.21
55424;BME280;41294;42.666;23.350;2023-10-09T06:09:39;95704.78;;;23.54;34.69
55424;BME280;41294;42.666;23.350;2023-10-09T06:12:25;95707.19;;;23.58;35.54
55424;BME280;41294;42.666;23.350;2023-10-09T06:15:15;95710.91;;;23.25;34.99
55424;BME280;41294;42.666;23.350;2023-10-09T06:17:59;95716.44;;;23.38;34.71
55424;BME280;41294;42.666;23.350;2023-10-09T06:20:47;95727.69;;;22.97;34.96
55424;BME280;41294;42.666;23.350;2023-10-09T06:23:34;95723.31;;;22.53;34.98
55424;BME280;41294;42.666;23.350;2023-10-09T06:26:18;95720.38;;;23.32;34.59
55424;BME280;41294;42.666;23.350;2023-10-09T06:28:51;95723.06;;;23.32;33.96
55424;BME280;41294;42.666;23.350;2023-10-09T06:31:40;95722.09;;;23.88;33.91
55424;BME280;41294;42.666;23.350;2023-10-09T06:34:32;95721.72;;;23.73;33.56
55424;BME280;41294;42.666;23.350;2023-10-09T06:37:01;95724.72;;;24.60;32.08
55424;BME280;41294;42.666;23.350;2023-10-09T06:39:56;95729.28;;;25.01;31.76
55424;BME280;41294;42.666;23.350;2023-10-09T06:42:26;95718.59;;;25.27;31.32
55424;BME280;41294;42.666;23.350;2023-10-09T06:45:12;95719.38;;;25.41;31.48
55424;BME280;41294;42.666;23.350;2023-10-09T06:47:48;95724.59;;;25.20;31.61
55424;BME280;41294;42.666;23.350;2023-10-09T06:50:35;95719.78;;;24.21;31.95
55424;BME280;41294;42.666;23.350;2023-10-09T06:53:19;95720.66;;;24.29;32.19
55424;BME280;41294;42.666;23.350;2023-10-09T06:55:45;95725.75;;;24.09;32.50
55424;BME280;41294;42.666;23.350;2023-10-09T06:58:22;95726.94;;;24.37;31.36
55424;BME280;41294;42.666;23.350;2023-10-09T07:00:52;95728.44;;;24.33;31.97
55424;BME280;41294;42.666;23.350;2023-10-09T07:03:36;95718.94;;;23.84;31.49
55424;BME280;41294;42.666;23.350;2023-10-09T07:06:17;95728.09;;;24.42;31.30
55424;BME280;41294;42.666;23.350;2023-10-09T07:08:56;95722.97;;;23.96;31.53
55424;BME280;41294;42.666;23.350;2023-10-09T07:11:44;95727.25;;;23.86;31.12
55424;BME280;41294;42.666;23.350;2023-10-09T07:14:18;95729.22;;;24.52;30.06
55424;BME280;41294;42.666;23.350;2023-10-09T07:17:03;95723.97;;;24.78;30.28
55424;BME280;41294;42.666;23.350;2023-10-09T07:19:44;95737.47;;;25.27;29.52
55424;BME280;41294;42.666;23.350;2023-10-09T07:22:13;95729.19;;;25.07;29.54
55424;BME280;41294;42.666;23.350;2023-10-09T07:24:55;95728.69;;;25.27;29.27
55424;BME280;41294;42.666;23.350;2023-10-09T07:27:39;95731.13;;;25.56;28.98
55424;BME280;41294;42.666;23.350;2023-10-09T07:30:18;95739.09;;;25.80;28.25
55424;BME280;41294;42.666;23.350;2023-10-09T07:35:34;95747.13;;;25.67;28.24
55424;BME280;41294;42.666;23.350;2023-10-09T07:38:22;95734.06;;;25.71;28.36
55424;BME280;41294;42.666;23.350;2023-10-09T07:40:50;95739.25;;;25.69;28.57
55424;BME280;41294;42.666;23.350;2023-10-09T07:43:37;95745.13;;;25.99;28.14
55424;BME280;41294;42.666;23.350;2023-10-09T07:46:15;95740.22;;;25.97;28.40
55424;BME280;41294;42.666;23.350;2023-10-09T07:48:59;95740.53;;;25.81;28.33
55424;BME280;41294;42.666;23.350;2023-10-09T07:51:39;95734.28;;;25.73;27.87
55424;BME280;41294;42.666;23.350;2023-10-09T07:54:09;95736.78;;;25.40;27.73
55424;BME280;41294;42.666;23.350;2023-10-09T07:56:39;95739.81;;;26.06;27.45
55424;BME280;41294;42.666;23.350;2023-10-09T07:59:15;95732.69;;;26.09;26.76
55424;BME280;41294;42.666;23.350;2023-10-09T08:01:46;95745.78;;;26.44;27.04
55424;BME280;41294;42.666;23.350;2023-10-09T08:04:23;95743.66;;;27.42;26.46
55424;BME280;41294;42.666;23.350;2023-10-09T08:07:08;95757.50;;;27.59;25.00
55424;BME280;41294;42.666;23.350;2023-10-09T08:09:35;95738.31;;;27.16;25.26
55424;BME280;41294;42.666;23.350;2023-10-09T08:12:14;95741.66;;;27.43;25.70
55424;BME280;41294;42.666;23.350;2023-10-09T08:14:58;95739.94;;;27.73;25.20
55424;BME280;41294;42.666;23.350;2023-10-09T08:17:42;95731.34;;;27.21;25.18
55424;BME280;41294;42.666;23.350;2023-10-09T08:20:13;95731.47;;;26.82;26.05
55424;BME280;41294;42.666;23.350;2023-10-09T08:22:42;95729.59;;;26.77;26.15
55424;BME280;41294;42.666;23.350;2023-10-09T08:25:18;95731.94;;;27.06;26.28
55424;BME280;41294;42.666;23.350;2023-10-09T08:28:04;95729.84;;;26.99;25.72
55424;BME280;41294;42.666;23.350;2023-10-09T08:30:47;95722.91;;;26.32;26.27
55424;BME280;41294;42.666;23.350;2023-10-09T08:33:29;95715.41;;;27.30;25.31
55424;BME280;41294;42.666;23.350;2023-10-09T08:36:10;95721.38;;;26.82;25.78
55424;BME280;41294;42.666;23.350;2023-10-09T08:38:39;95717.97;;;27.15;25.47
55424;BME280;41294;42.666;23.350;2023-10-09T08:41:11;95699.44;;;26.40;26.09
55424;BME280;41294;42.666;23.350;2023-10-09T08:43:51;95711.19;;;26.88;26.08
55424;BME280;41294;42.666;23.350;2023-10-09T08:46:35;95699.84;;;26.77;25.16
55424;BME280;41294;42.666;23.350;2023-10-09T08:49:02;95698.78;;;26.47;25.97
55424;BME280;41294;42.666;23.350;2023-10-09T08:51:36;95689.88;;;26.26;26.45
55424;BME280;41294;42.666;23.350;2023-10-09T08:54:01;95685.72;;;26.84;25.96
55424;BME280;41294;42.666;23.350;2023-10-09T08:56:27;95688.13;;;26.74;25.70
55424;BME280;41294;42.666;23.350;2023-10-09T08:58:56;95685.41;;;26.87;25.49
55424;BME280;41294;42.666;23.350;2023-10-09T09:01:24;95678.44;;;26.79;25.73
55424;BME280;41294;42.666;23.350;2023-10-09T09:03:51;95684.09;;;26.68;25.75
55424;BME280;41294;42.666;23.350;2023-10-09T09:06:21;95677.41;;;26.49;25.22
55424;BME280;41294;42.666;23.350;2023-10-09T09:08:49;95682.47;;;26.85;25.20
55424;BME280;41294;42.666;23.350;2023-10-09T09:11:20;95686.16;;;27.69;24.82
55424;BME280;41294;42.666;23.350;2023-10-09T09:14:04;95685.84;;;27.32;24.62
55424;BME280;41294;42.666;23.350;2023-10-09T09:16:32;95673.81;;;27.20;24.26
55424;BME280;41294;42.666;23.350;2023-10-09T09:19:03;95684.28;;;25.98;25.11
55424;BME280;41294;42.666;23.350;2023-10-09T09:21:37;95675.75;;;26.33;24.49
55424;BME280;41294;42.666;23.350;2023-10-09T09:24:08;95673.94;;;26.61;24.38
55424;BME280;41294;42.666;23.350;2023-10-09T09:26:49;95667.78;;;25.76;24.99
55424;BME280;41294;42.666;23.350;2023-10-09T09:29:38;95674.19;;;25.73;25.20
55424;BME280;41294;42.666;23.350;2023-10-09T09:32:08;95665.81;;;25.76;24.93
55424;BME280;41294;42.666;23.350;2023-10-09T09:34:47;95668.84;;;26.58;24.85
55424;BME280;41294;42.666;23.350;2023-10-09T09:37:33;95657.06;;;26.22;24.50
55424;BME280;41294;42.666;23.350;2023-10-09T09:40:04;95651.72;;;25.83;24.87
55424;BME280;41294;42.666;23.350;2023-10-09T09:42:50;95645.38;;;25.23;25.38
55424;BME280;41294;42.666;23.350;2023-10-09T09:45:17;95660.34;;;25.37;25.36
55424;BME280;41294;42.666;23.350;2023-10-09T09:47:45;95657.63;;;25.94;24.85
55424;BME280;41294;42.666;23.350;2023-10-09T09:50:20;95647.53;;;25.95;25.35
55424;BME280;41294;42.666;23.350;2023-10-09T09:52:55;95650.59;;;26.38;24.13
55424;BME280;41294;42.666;23.350;2023-10-09T09:55:32;95649.22;;;26.57;24.07
55424;BME280;41294;42.666;23.350;2023-10-09T09:57:58;95649.81;;;26.04;24.59
55424;BME280;41294;42.666;23.350;2023-10-09T10:00:29;95643.13;;;26.31;24.49
55424;BME280;41294;42.666;23.350;2023-10-09T10:03:25;95626.50;;;26.40;23.93
55424;BME280;41294;42.666;23.350;2023-10-09T10:05:54;95625.72;;;26.19;24.03
55424;BME280;41294;42.666;23.350;2023-10-09T10:08:22;95622.06;;;26.16;24.79
55424;BME280;41294;42.666;23.350;2023-10-09T10:10:56;95618.56;;;25.44;24.83
55424;BME280;41294;42.666;23.350;2023-10-09T10:16:14;95604.25;;;26.47;24.26
55424;BME280;41294;42.666;23.350;2023-10-09T10:19:00;95597.19;;;25.97;24.33
55424;BME280;41294;42.666;23.350;2023-10-09T10:21:32;95594.78;;;26.07;23.48
55424;BME280;41294;42.666;23.350;2023-10-09T10:24:04;95590.03;;;25.61;24.66
55424;BME280;41294;42.666;23.350;2023-10-09T10:26:36;95589.81;;;25.85;24.36
55424;BME280;41294;42.666;23.350;2023-10-09T10:29:18;95587.53;;;26.35;24.44
55424;BME280;41294;42.666;23.350;2023-10-09T10:34:26;95560.63;;;25.06;24.85
55424;BME280;41294;42.666;23.350;2023-10-09T10:36:52;95552.25;;;25.09;24.78
55424;BME280;41294;42.666;23.350;2023-10-09T10:39:27;95542.94;;;25.23;24.55
55424;BME280;41294;42.666;23.350;2023-10-09T10:42:08;95547.72;;;25.43;24.82
55424;BME280;41294;42.666;23.350;2023-10-09T10:44:56;95550.91;;;25.55;24.43
55424;BME280;41294;42.666;23.350;2023-10-09T10:47:26;95544.69;;;25.73;24.42
55424;BME280;41294;42.666;23.350;2023-10-09T10:50:01;95528.97;;;25.25;25.09
55424;BME280;41294;42.666;23.350;2023-10-09T10:52:45;95522.13;;;24.80;24.90
55424;BME280;41294;42.666;23.350;2023-10-09T10:55:16;95529.66;;;24.37;25.64
55424;BME280;41294;42.666;23.350;2023-10-09T10:58:17;95531.28;;;25.02;25.15
55424;BME280;41294;42.666;23.350;2023-10-09T11:00:55;95506.09;;;24.74;25.21
55424;BME280;41294;42.666;23.350;2023-10-09T11:03:24;95509.97;;;25.17;25.70
55424;BME280;41294;42.666;23.350;2023-10-09T11:06:03;95510.81;;;25.12;25.37
55424;BME280;41294;42.666;23.350;2023-10-09T11:08:46;95511.47;;;24.87;25.34
55424;BME280;41294;42.666;23.350;2023-10-09T11:11:24;95511.72;;;25.28;25.48
55424;BME280;41294;42.666;23.350;2023-10-09T11:14:10;95512.34;;;25.47;25.82
55424;BME280;41294;42.666;23.350;2023-10-09T11:16:49;95496.63;;;25.71;25.43
55424;BME280;41294;42.666;23.350;2023-10-09T11:19:21;95492.06;;;25.92;25.40
55424;BME280;41294;42.666;23.350;2023-10-09T11:21:53;95478.03;;;25.93;24.82
55424;BME280;41294;42.666;23.350;2023-10-09T11:24:28;95470.91;;;25.70;25.04
55424;BME280;41294;42.666;23.350;2023-10-09T11:27:20;95463.84;;;25.80;24.92
55424;BME280;41294;42.666;23.350;2023-10-09T11:29:49;95464.41;;;25.99;24.76
55424;BME280;41294;42.666;23.350;2023-10-09T11:32:17;95467.69;;;25.72;25.38
55424;BME280;41294;42.666;23.350;2023-10-09T11:35:14;95458.91;;;26.04;24.71
55424;BME280;41294;42.666;23.350;2023-10-09T11:37:56;95466.06;;;26.02;24.57
55424;BME280;41294;42.666;23.350;2023-10-09T11:40:47;95456.06;;;25.64;25.21
55424;BME280;41294;42.666;23.350;2023-10-09T11:43:16;95462.22;;;25.64;25.50
55424;BME280;41294;42.666;23.350;2023-10-09T11:45:41;95468.56;;;26.00;25.00
55424;BME280;41294;42.666;23.350;2023-10-09T11:48:20;95455.88;;;26.08;24.69
55424;BME280;41294;42.666;23.350;2023-10-09T11:51:14;95452.22;;;25.72;24.90
55424;BME280;41294;42.666;23.350;2023-10-09T11:53:46;95444.56;;;25.63;24.81
55424;BME280;41294;42.666;23.350;2023-10-09T11:56:15;95436.34;;;24.96;25.33
55424;BME280;41294;42.666;23.350;2023-10-09T11:58:47;95429.41;;;24.75;25.74
55424;BME280;41294;42.666;23.350;2023-10-09T12:01:15;95415.91;;;25.01;25.79
55424;BME280;41294;42.666;23.350;2023-10-09T12:03:46;95409.19;;;25.20;25.33
55424;BME280;41294;42.666;23.350;2023-10-09T12:06:16;95411.38;;;25.22;25.48
55424;BME280;41294;42.666;23.350;2023-10-09T12:08:45;95404.84;;;25.30;25.52
55424;BME280;41294;42.666;23.350;2023-10-09T12:11:16;95396.16;;;25.11;25.63
55424;BME280;41294;42.666;23.350;2023-10-09T12:13:56;95400.47;;;25.14;25.69
55424;BME280;41294;42.666;23.350;2023-10-09T12:16:23;95402.16;;;25.17;25.68
55424;BME280;41294;42.666;23.350;2023-10-09T12:18:53;95394.50;;;24.95;25.74
55424;BME280;41294;42.666;23.350;2023-10-09T12:21:20;95393.53;;;24.93;26.07
55424;BME280;41294;42.666;23.350;2023-10-09T12:23:46;95383.28;;;25.17;25.88
55424;BME280;41294;42.666;23.350;2023-10-09T12:26:12;95384.75;;;24.92;25.93
55424;BME280;41294;42.666;23.350;2023-10-09T12:28:43;95390.75;;;24.98;25.78
55424;BME280;41294;42.666;23.350;2023-10-09T12:31:13;95381.94;;;24.98;26.18
55424;BME280;41294;42.666;23.350;2023-10-09T12:33:46;95370.84;;;24.89;25.54
55424;BME280;41294;42.666;23.350;2023-10-09T12:36:13;95371.06;;;24.65;25.70
55424;BME280;41294;42.666;23.350;2023-10-09T12:38:46;95373.97;;;24.67;25.43
55424;BME280;41294;42.666;23.350;2023-10-09T12:41:15;95363.94;;;24.80;25.80
55424;BME280;41294;42.666;23.350;2023-10-09T12:44:00;95357.75;;;25.05;25.43
55424;BME280;41294;42.666;23.350;2023-10-09T12:46:27;95357.28;;;24.81;25.37
55424;BME280;41294;42.666;23.350;2023-10-09T12:48:53;95354.50;;;24.87;25.14
55424;BME280;41294;42.666;23.350;2023-10-09T12:51:23;95353.00;;;24.98;25.46
55424;BME280;41294;42.666;23.350;2023-10-09T12:53:55;95342.47;;;24.88;24.69
55424;BME280;41294;42.666;23.350;2023-10-09T12:56:24;95347.06;;;24.67;24.21
55424;BME280;41294;42.666;23.350;2023-10-09T12:59:00;95341.25;;;24.76;24.16
55424;BME280;41294;42.666;23.350;2023-10-09T13:01:27;95346.53;;;24.81;23.42
55424;BME280;41294;42.666;23.350;2023-10-09T13:04:00;95334.22;;;24.60;23.70
55424;BME280;41294;42.666;23.350;2023-10-09T13:06:26;95330.47;;;24.63;23.48
55424;BME280;41294;42.666;23.350;2023-10-09T13:08:53;95337.09;;;24.75;22.85
55424;BME280;41294;42.666;23.350;2023-10-09T13:11:18;95323.22;;;24.58;23.36
55424;BME280;41294;42.666;23.350;2023-10-09T13:13:45;95321.34;;;24.53;23.27
55424;BME280;41294;42.666;23.350;2023-10-09T13:16:18;95314.31;;;24.63;23.82
55424;BME280;41294;42.666;23.350;2023-10-09T13:18:50;95321.03;;;24.30;24.46
55424;BME280;41294;42.666;23.350;2023-10-09T13:21:24;95301.25;;;24.28;24.97
55424;BME280;41294;42.666;23.350;2023-10-09T13:23:51;95307.88;;;24.27;24.73
55424;BME280;41294;42.666;23.350;2023-10-09T13:26:20;95306.63;;;24.15;25.25
55424;BME280;41294;42.666;23.350;2023-10-09T13:28:59;95302.78;;;23.98;25.46
55424;BME280;41294;42.666;23.350;2023-10-09T13:31:25;95292.84;;;24.06;25.58
55424;BME280;41294;42.666;23.350;2023-10-09T13:33:56;95290.47;;;24.28;25.01
55424;BME280;41294;42.666;23.350;2023-10-09T13:36:25;95298.84;;;23.99;24.82
55424;BME280;41294;42.666;23.350;2023-10-09T13:39:02;95293.16;;;23.89;24.88
55424;BME280;41294;42.666;23.350;2023-10-09T13:41:46;95289.19;;;23.77;24.44